createdAt,value
2022-09-29T00:02:01.926Z,98450.34
2022-09-29T00:04:30.697Z,98438.84
2022-09-29T00:06:58.005Z,98439.06
2022-09-29T00:09:25.444Z,98448.84
2022-09-29T00:11:55.111Z,98441.50
2022-09-29T00:14:22.689Z,98443.75
2022-09-29T00:16:50.534Z,98447.84
2022-09-29T00:19:18.189Z,98445.03
2022-09-29T00:21:46.860Z,98438.91
2022-09-29T00:24:14.221Z,98447.09
2022-09-29T00:26:41.797Z,98441.75
2022-09-29T00:29:11.188Z,98444.78
2022-09-29T00:31:38.646Z,98438.13
2022-09-29T00:34:06.077Z,98442.16
2022-09-29T00:36:33.410Z,98440.16
2022-09-29T00:39:02.110Z,98444.84
2022-09-29T00:41:32.049Z,98435.03
2022-09-29T00:44:01.264Z,98437.03
2022-09-29T00:46:36.382Z,98430.59
2022-09-29T00:49:09.539Z,98430.25
2022-09-29T00:51:38.961Z,98426.53
2022-09-29T00:54:09.010Z,98423.28
2022-09-29T00:56:37.959Z,98430.56
2022-09-29T00:59:09.656Z,98422.44
2022-09-29T01:01:37.246Z,98424.31
2022-09-29T01:04:06.174Z,98425.91
2022-09-29T01:06:35.641Z,98427.50
2022-09-29T01:09:05.007Z,98429.31
2022-09-29T01:11:34.021Z,98428.22
2022-09-29T01:14:03.754Z,98424.53
2022-09-29T01:16:32.183Z,98431.06
2022-09-29T01:19:00.620Z,98435.63
2022-09-29T01:21:35.686Z,98428.22
2022-09-29T01:24:20.974Z,98432.25
2022-09-29T01:27:06.265Z,98428.94
2022-09-29T01:29:56.045Z,98439.50
2022-09-29T01:32:32.516Z,98432.31
2022-09-29T01:35:06.453Z,98434.19
2022-09-29T01:37:43.976Z,98432.06
2022-09-29T01:40:15.715Z,98445.56
2022-09-29T01:42:49.657Z,98442.19
2022-09-29T01:45:21.110Z,98440.53
2022-09-29T01:47:52.053Z,98440.16
2022-09-29T01:50:22.716Z,98444.84
2022-09-29T01:52:52.781Z,98445.91
2022-09-29T01:55:22.449Z,98446.03
2022-09-29T01:57:53.096Z,98441.66
2022-09-29T02:00:23.753Z,98443.88
2022-09-29T02:02:56.477Z,98439.84
2022-09-29T02:05:28.737Z,98450.19
2022-09-29T02:07:58.140Z,98451.72
2022-09-29T02:10:29.251Z,98447.66
2022-09-29T02:12:57.449Z,98447.25
2022-09-29T02:15:28.044Z,98450.22
2022-09-29T02:18:00.109Z,98447.88
2022-09-29T02:20:27.494Z,98453.38
2022-09-29T02:22:56.321Z,98452.13
2022-09-29T02:25:24.329Z,98447.47
2022-09-29T02:27:52.034Z,98457.97
2022-09-29T02:30:20.318Z,98456.59
2022-09-29T02:32:48.249Z,98461.56
2022-09-29T02:35:17.550Z,98459.28
2022-09-29T02:37:50.714Z,98472.00
2022-09-29T02:40:25.233Z,98458.91
2022-09-29T02:43:01.594Z,98460.69
2022-09-29T02:45:36.539Z,98457.16
2022-09-29T02:48:16.467Z,98462.84
2022-09-29T02:50:50.250Z,98463.91
2022-09-29T02:53:26.154Z,98458.41
2022-09-29T02:55:58.802Z,98464.78
2022-09-29T02:58:31.027Z,98459.50
2022-09-29T03:00:59.160Z,98466.34
2022-09-29T03:03:26.583Z,98461.09
2022-09-29T03:05:55.430Z,98457.25
2022-09-29T03:08:22.796Z,98458.38
2022-09-29T03:10:50.534Z,98461.72
2022-09-29T03:13:17.833Z,98455.25
2022-09-29T03:15:45.203Z,98443.25
2022-09-29T03:18:12.565Z,98449.97
2022-09-29T03:20:39.857Z,98450.75
2022-09-29T03:23:08.566Z,98451.56
2022-09-29T03:25:35.897Z,98447.72
2022-09-29T03:28:03.237Z,98453.03
2022-09-29T03:30:30.561Z,98452.72
2022-09-29T03:32:57.904Z,98460.13
2022-09-29T03:35:25.292Z,98455.22
2022-09-29T03:37:53.249Z,98460.84
2022-09-29T03:40:21.918Z,98459.88
2022-09-29T03:42:49.249Z,98459.75
2022-09-29T03:45:16.721Z,98460.78
2022-09-29T03:47:44.074Z,98458.69
2022-09-29T03:50:11.641Z,98460.06
2022-09-29T03:52:39.209Z,98458.31
2022-09-29T03:55:07.546Z,98459.28
2022-09-29T03:57:36.222Z,98457.81
2022-09-29T04:00:04.505Z,98462.44
2022-09-29T04:02:35.815Z,98457.50
2022-09-29T04:05:03.194Z,98471.81
2022-09-29T04:07:31.916Z,98473.81
2022-09-29T04:09:59.290Z,98470.13
2022-09-29T04:12:26.595Z,98478.00
2022-09-29T04:14:55.295Z,98474.72
2022-09-29T04:17:22.665Z,98482.00
2022-09-29T04:19:50.026Z,98482.13
2022-09-29T04:22:18.261Z,98491.41
2022-09-29T04:24:46.688Z,98492.28
2022-09-29T04:27:14.009Z,98494.81
2022-09-29T04:29:41.358Z,98497.72
2022-09-29T04:32:10.022Z,98503.97
2022-09-29T04:34:37.710Z,98507.41
2022-09-29T04:37:05.029Z,98504.16
2022-09-29T04:39:32.528Z,98502.16
2022-09-29T04:41:59.848Z,98511.69
2022-09-29T04:44:27.190Z,98505.81
2022-09-29T04:46:54.535Z,98509.09
2022-09-29T04:49:23.229Z,98515.72
2022-09-29T04:51:50.589Z,98515.44
2022-09-29T04:54:18.047Z,98520.16
2022-09-29T04:56:45.481Z,98524.81
2022-09-29T04:59:12.921Z,98532.72
2022-09-29T05:01:40.246Z,98533.75
2022-09-29T05:04:08.830Z,98528.75
2022-09-29T05:06:39.438Z,98534.53
2022-09-29T05:09:06.977Z,98530.19
2022-09-29T05:11:34.281Z,98531.41
2022-09-29T05:14:01.626Z,98528.16
2022-09-29T05:16:29.026Z,98537.91
2022-09-29T05:18:56.502Z,98530.84
2022-09-29T05:21:28.246Z,98527.22
2022-09-29T05:23:58.082Z,98541.53
2022-09-29T05:26:25.475Z,98533.84
2022-09-29T05:28:52.785Z,98534.66
2022-09-29T05:31:20.357Z,98538.97
2022-09-29T05:33:47.795Z,98528.00
2022-09-29T05:36:15.631Z,98526.94
2022-09-29T05:38:42.994Z,98534.47
2022-09-29T05:41:12.994Z,98538.09
2022-09-29T05:43:41.868Z,98540.50
2022-09-29T05:46:10.789Z,98542.63
2022-09-29T05:48:38.689Z,98540.34
2022-09-29T05:51:10.914Z,98538.38
2022-09-29T05:53:38.281Z,98545.00
2022-09-29T05:56:07.089Z,98550.00
2022-09-29T05:58:36.894Z,98544.19
2022-09-29T06:01:06.884Z,98552.75
2022-09-29T06:03:35.242Z,98550.25
2022-09-29T06:06:07.285Z,98554.88
2022-09-29T06:08:34.785Z,98557.91
2022-09-29T06:11:06.545Z,98560.72
2022-09-29T06:13:38.040Z,98558.22
2022-09-29T06:16:05.706Z,98559.63
2022-09-29T06:18:33.056Z,98567.81
2022-09-29T06:21:02.400Z,98563.38
2022-09-29T06:23:29.839Z,98563.84
2022-09-29T06:25:58.334Z,98563.09
2022-09-29T06:28:25.796Z,98558.44
2022-09-29T06:30:54.498Z,98566.25
2022-09-29T06:33:21.880Z,98559.94
2022-09-29T06:36:07.808Z,98564.34
2022-09-29T06:38:35.465Z,98567.47
2022-09-29T06:41:02.911Z,98560.06
2022-09-29T06:43:30.325Z,98566.38
2022-09-29T06:45:59.805Z,98576.03
2022-09-29T06:48:29.357Z,98574.25
2022-09-29T06:51:07.322Z,98574.69
2022-09-29T06:53:38.623Z,98577.38
2022-09-29T06:56:07.446Z,98569.44
2022-09-29T06:58:35.453Z,98572.69
2022-09-29T07:01:05.969Z,98575.97
2022-09-29T07:03:33.973Z,98584.94
2022-09-29T07:06:20.158Z,98581.50
2022-09-29T07:08:47.972Z,98577.59
2022-09-29T07:11:16.454Z,98580.84
2022-09-29T07:13:43.781Z,98583.03
2022-09-29T07:16:14.137Z,98583.19
2022-09-29T07:18:43.010Z,98590.44
2022-09-29T07:21:12.349Z,98590.38
2022-09-29T07:23:41.057Z,98588.00
2022-09-29T07:26:08.658Z,98588.81
2022-09-29T07:28:36.729Z,98585.16
2022-09-29T07:31:14.501Z,98586.53
2022-09-29T07:33:44.641Z,98588.91
2022-09-29T07:36:12.193Z,98592.88
2022-09-29T07:38:39.574Z,98600.13
2022-09-29T07:41:09.577Z,98591.88
2022-09-29T07:43:36.953Z,98594.50
2022-09-29T07:46:04.960Z,98606.97
2022-09-29T07:48:33.614Z,98595.28
2022-09-29T07:51:03.392Z,98593.34
2022-09-29T07:53:31.099Z,98599.41
2022-09-29T07:56:03.337Z,98592.28
2022-09-29T07:58:32.179Z,98605.34
2022-09-29T08:01:00.236Z,98605.59
2022-09-29T08:03:27.700Z,98614.97
2022-09-29T08:05:55.248Z,98614.50
2022-09-29T08:08:24.210Z,98619.53
2022-09-29T08:10:53.930Z,98617.66
2022-09-29T08:13:21.650Z,98623.00
2022-09-29T08:15:49.025Z,98622.31
2022-09-29T08:18:16.407Z,98624.75
2022-09-29T08:20:43.794Z,98632.19
2022-09-29T08:23:11.485Z,98621.25
2022-09-29T08:25:41.270Z,98634.16
2022-09-29T08:28:12.725Z,98630.91
2022-09-29T08:30:41.632Z,98631.22
2022-09-29T08:33:14.513Z,98635.09
2022-09-29T08:35:42.006Z,98634.31
2022-09-29T08:38:09.485Z,98636.41
2022-09-29T08:40:36.914Z,98641.69
2022-09-29T08:43:11.165Z,98641.69
2022-09-29T08:45:55.797Z,98639.56
2022-09-29T08:48:29.214Z,98644.47
2022-09-29T08:50:58.729Z,98641.59
2022-09-29T08:53:29.399Z,98643.22
2022-09-29T08:55:59.027Z,98647.78
2022-09-29T08:58:28.099Z,98649.06
2022-09-29T09:01:05.047Z,98649.00
2022-09-29T09:03:56.921Z,98657.03
2022-09-29T09:06:28.857Z,98655.03
2022-09-29T09:09:07.253Z,98656.31
2022-09-29T09:11:55.920Z,98663.16
2022-09-29T09:14:32.609Z,98659.13
2022-09-29T09:17:06.121Z,98654.91
2022-09-29T09:19:44.373Z,98658.03
2022-09-29T09:22:22.222Z,98650.03
2022-09-29T09:24:56.732Z,98659.16
2022-09-29T09:27:27.310Z,98660.81
2022-09-29T09:30:06.086Z,98665.50
2022-09-29T09:32:38.779Z,98657.25
2022-09-29T09:35:23.301Z,98655.25
2022-09-29T09:37:53.710Z,98659.25
2022-09-29T09:40:24.020Z,98656.78
2022-09-29T09:42:54.219Z,98655.47
2022-09-29T09:45:30.046Z,98654.50
2022-09-29T09:48:02.317Z,98655.09
2022-09-29T09:50:30.314Z,98652.06
2022-09-29T09:53:02.282Z,98658.72
2022-09-29T09:55:34.797Z,98663.97
2022-09-29T09:58:19.678Z,98661.56
2022-09-29T10:00:51.311Z,98661.41
2022-09-29T10:03:19.016Z,98655.28
2022-09-29T10:05:47.606Z,98659.28
2022-09-29T10:08:20.945Z,98660.47
2022-09-29T10:10:57.949Z,98660.19
2022-09-29T10:13:27.920Z,98663.34
2022-09-29T10:15:59.219Z,98671.38
2022-09-29T10:18:30.572Z,98664.13
2022-09-29T10:20:57.989Z,98667.59
2022-09-29T10:23:27.995Z,98667.44
2022-09-29T10:25:59.054Z,98662.88
2022-09-29T10:28:27.813Z,98662.63
2022-09-29T10:30:57.181Z,98659.94
2022-09-29T10:33:25.916Z,98667.47
2022-09-29T10:36:07.318Z,98665.16
2022-09-29T10:38:35.621Z,98670.88
2022-09-29T10:41:05.011Z,98673.66
2022-09-29T10:43:36.858Z,98677.94
2022-09-29T10:46:06.462Z,98680.59
2022-09-29T10:48:34.115Z,98683.75
2022-09-29T10:51:02.918Z,98682.31
2022-09-29T10:53:35.467Z,98679.19
2022-09-29T10:56:10.010Z,98679.81
2022-09-29T10:58:52.595Z,98682.72
2022-09-29T11:01:27.470Z,98687.09
2022-09-29T11:04:01.245Z,98677.44
2022-09-29T11:06:30.150Z,98681.72
2022-09-29T11:08:59.166Z,98686.56
2022-09-29T11:11:28.473Z,98697.47
2022-09-29T11:13:57.039Z,98693.88
2022-09-29T11:16:29.723Z,98696.31
2022-09-29T11:19:00.351Z,98702.50
2022-09-29T11:21:54.002Z,98691.09
2022-09-29T11:24:28.576Z,98691.50
2022-09-29T11:27:00.533Z,98686.13
2022-09-29T11:29:37.436Z,98689.78
2022-09-29T11:32:18.065Z,98681.97
2022-09-29T11:34:56.853Z,98686.47
2022-09-29T11:37:36.200Z,98692.34
2022-09-29T11:40:12.846Z,98693.66
2022-09-29T11:42:58.725Z,98693.72
2022-09-29T11:45:33.671Z,98687.03
2022-09-29T11:48:40.773Z,98695.81
2022-09-29T11:51:16.401Z,98690.81
2022-09-29T11:53:57.697Z,98693.56
2022-09-29T11:56:31.840Z,98691.66
2022-09-29T11:59:08.759Z,98699.53
2022-09-29T12:01:49.757Z,98688.06
2022-09-29T12:04:24.670Z,98689.09
2022-09-29T12:06:55.097Z,98700.63
2022-09-29T12:09:37.191Z,98700.63
2022-09-29T12:12:23.131Z,98702.22
2022-09-29T12:15:08.765Z,98698.22
2022-09-29T12:17:39.092Z,98704.06
2022-09-29T12:20:16.798Z,98698.38
2022-09-29T12:22:45.073Z,98695.75
2022-09-29T12:25:14.892Z,98704.41
2022-09-29T12:27:44.301Z,98703.72
2022-09-29T12:30:16.982Z,98702.59
2022-09-29T12:32:49.376Z,98694.81
2022-09-29T12:35:22.025Z,98686.03
2022-09-29T12:37:55.109Z,98704.25
2022-09-29T12:40:33.157Z,98700.91
2022-09-29T12:43:06.032Z,98700.91
2022-09-29T12:45:37.994Z,98701.34
2022-09-29T12:48:18.617Z,98699.06
2022-09-29T12:50:51.218Z,98700.34
2022-09-29T12:53:22.483Z,98698.97
2022-09-29T12:55:55.614Z,98703.31
2022-09-29T12:58:27.070Z,98704.25
2022-09-29T13:01:00.113Z,98703.28
2022-09-29T13:03:37.379Z,98704.91
2022-09-29T13:06:35.225Z,98702.44
2022-09-29T13:09:26.858Z,98703.84
2022-09-29T13:12:07.522Z,98705.44
2022-09-29T13:14:58.981Z,98703.31
2022-09-29T13:17:38.452Z,98708.16
2022-09-29T13:20:18.335Z,98708.66
2022-09-29T13:23:06.990Z,98710.97
2022-09-29T13:25:38.875Z,98704.34
2022-09-29T13:28:25.561Z,98704.91
2022-09-29T13:30:53.892Z,98695.31
2022-09-29T13:33:23.099Z,98703.25
2022-09-29T13:35:51.537Z,98692.00
2022-09-29T13:38:22.469Z,98686.81
2022-09-29T13:41:15.551Z,98699.25
2022-09-29T13:44:06.171Z,98693.53
2022-09-29T13:46:38.343Z,98697.34
2022-09-29T13:49:14.880Z,98687.34
2022-09-29T13:51:49.906Z,98695.75
2022-09-29T13:54:32.930Z,98697.94
2022-09-29T13:57:09.340Z,98704.72
2022-09-29T13:59:39.457Z,98703.88
2022-09-29T14:02:26.720Z,98703.84
2022-09-29T14:04:55.787Z,98708.97
2022-09-29T14:07:39.154Z,98707.16
2022-09-29T14:10:18.730Z,98707.41
2022-09-29T14:12:51.483Z,98702.78
2022-09-29T14:15:21.640Z,98698.50
2022-09-29T14:17:52.981Z,98704.13
2022-09-29T14:20:22.469Z,98708.75
2022-09-29T14:23:01.661Z,98704.72
2022-09-29T14:25:49.194Z,98704.47
2022-09-29T14:28:19.293Z,98704.16
2022-09-29T14:30:50.638Z,98699.53
2022-09-29T14:33:20.986Z,98706.75
2022-09-29T14:35:54.527Z,98710.03
2022-09-29T14:38:23.756Z,98717.63
2022-09-29T14:40:57.108Z,98717.16
2022-09-29T14:43:34.129Z,98720.34
2022-09-29T14:46:33.875Z,98726.75
2022-09-29T14:49:31.107Z,98730.31
2022-09-29T14:52:03.512Z,98729.06
2022-09-29T14:54:39.421Z,98725.63
2022-09-29T14:57:18.748Z,98730.06
2022-09-29T14:59:56.927Z,98735.19
2022-09-29T15:02:26.687Z,98741.50
2022-09-29T15:04:54.268Z,98737.06
2022-09-29T15:07:23.268Z,98745.47
2022-09-29T15:09:52.533Z,98741.72
2022-09-29T15:12:27.372Z,98740.78
2022-09-29T15:14:55.284Z,98749.50
2022-09-29T15:17:41.886Z,98747.88
2022-09-29T15:20:18.219Z,98748.38
2022-09-29T15:22:57.348Z,98757.50
2022-09-29T15:25:29.274Z,98755.06
2022-09-29T15:28:01.129Z,98756.88
2022-09-29T15:30:29.841Z,98755.91
2022-09-29T15:33:11.173Z,98760.97
2022-09-29T15:35:44.435Z,98762.84
2022-09-29T15:38:28.802Z,98766.84
2022-09-29T15:40:59.058Z,98768.03
2022-09-29T15:43:29.345Z,98772.13
2022-09-29T15:46:00.222Z,98777.00
2022-09-29T15:48:28.339Z,98777.81
2022-09-29T15:50:56.426Z,98777.34
2022-09-29T15:53:24.832Z,98781.75
2022-09-29T15:55:53.308Z,98783.38
2022-09-29T15:58:43.883Z,98790.53
2022-09-29T16:01:13.492Z,98787.53
2022-09-29T16:03:44.720Z,98784.63
2022-09-29T16:06:19.781Z,98798.88
2022-09-29T16:08:48.581Z,98788.22
2022-09-29T16:11:21.493Z,98797.03
2022-09-29T16:13:54.464Z,98802.91
2022-09-29T16:16:31.002Z,98809.38
2022-09-29T16:19:02.199Z,98805.75
2022-09-29T16:21:36.076Z,98806.66
2022-09-29T16:24:08.209Z,98814.22
2022-09-29T16:26:36.770Z,98817.47
2022-09-29T16:29:25.556Z,98827.78
2022-09-29T16:31:53.907Z,98825.16
2022-09-29T16:34:28.050Z,98829.41
2022-09-29T16:36:56.857Z,98830.44
2022-09-29T16:39:25.820Z,98833.19
2022-09-29T16:41:55.001Z,98835.44
2022-09-29T16:44:29.168Z,98834.28
2022-09-29T16:46:59.470Z,98843.56
2022-09-29T16:49:32.520Z,98841.72
2022-09-29T16:52:02.458Z,98853.50
2022-09-29T16:54:33.411Z,98854.97
2022-09-29T16:57:18.082Z,98859.06
2022-09-29T16:59:47.118Z,98856.88
2022-09-29T17:02:14.745Z,98860.16
2022-09-29T17:04:42.134Z,98857.94
2022-09-29T17:07:14.891Z,98858.94
2022-09-29T17:09:45.289Z,98858.53
2022-09-29T17:12:13.824Z,98862.63
2022-09-29T17:14:41.296Z,98866.72
2022-09-29T17:17:16.293Z,98880.22
2022-09-29T17:19:43.750Z,98881.19
2022-09-29T17:22:21.750Z,98879.34
2022-09-29T17:24:49.389Z,98883.00
2022-09-29T17:27:34.642Z,98888.50
2022-09-29T17:30:02.637Z,98882.09
2022-09-29T17:32:31.348Z,98885.75
2022-09-29T17:34:58.778Z,98891.03
2022-09-29T17:37:26.311Z,98892.22
2022-09-29T17:39:53.737Z,98895.28
2022-09-29T17:42:26.863Z,98895.66
2022-09-29T17:44:54.248Z,98898.91
2022-09-29T17:47:28.231Z,98904.16
2022-09-29T17:49:57.482Z,98911.22
2022-09-29T17:52:25.533Z,98912.38
2022-09-29T17:54:52.950Z,98916.56
2022-09-29T17:57:28.229Z,98912.41
2022-09-29T17:59:58.212Z,98918.25
2022-09-29T18:02:26.326Z,98911.06
2022-09-29T18:04:54.149Z,98914.34
2022-09-29T18:07:23.049Z,98925.09
2022-09-29T18:09:50.460Z,98924.84
2022-09-29T18:12:18.164Z,98920.22
2022-09-29T18:14:45.629Z,98922.25
2022-09-29T18:17:13.052Z,98930.44
2022-09-29T18:19:40.501Z,98924.47
2022-09-29T18:22:08.358Z,98927.50
2022-09-29T18:24:37.182Z,98931.50
2022-09-29T18:27:04.787Z,98936.44
2022-09-29T18:29:32.594Z,98948.06
2022-09-29T18:32:00.541Z,98944.28
2022-09-29T18:34:30.905Z,98944.78
2022-09-29T18:36:58.578Z,98955.94
2022-09-29T18:39:29.195Z,98947.78
2022-09-29T18:41:57.950Z,98952.09
2022-09-29T18:44:29.516Z,98957.41
2022-09-29T18:46:57.081Z,98965.94
2022-09-29T18:49:24.694Z,98964.72
2022-09-29T18:51:52.730Z,98970.19
2022-09-29T18:54:20.274Z,98964.72
2022-09-29T18:56:50.432Z,98970.78
2022-09-29T18:59:22.840Z,98971.97
2022-09-29T19:01:50.740Z,98977.19
2022-09-29T19:04:18.279Z,98981.31
2022-09-29T19:06:45.650Z,98984.19
2022-09-29T19:09:13.107Z,98989.53
2022-09-29T19:11:40.501Z,98998.19
2022-09-29T19:14:08.427Z,98991.66
2022-09-29T19:16:37.207Z,98994.66
2022-09-29T19:19:09.188Z,98997.84
2022-09-29T19:21:36.759Z,99006.22
2022-09-29T19:24:04.765Z,99009.44
2022-09-29T19:26:32.193Z,99008.16
2022-09-29T19:28:59.601Z,99012.47
2022-09-29T19:31:29.142Z,99022.91
2022-09-29T19:33:57.989Z,99027.25
2022-09-29T19:36:26.498Z,99025.06
2022-09-29T19:38:54.006Z,99028.22
2022-09-29T19:41:23.567Z,99022.69
2022-09-29T19:43:51.158Z,99031.09
2022-09-29T19:46:21.405Z,99030.38
2022-09-29T19:48:51.476Z,99036.03
2022-09-29T19:51:38.145Z,99032.63
2022-09-29T19:54:14.606Z,99038.22
2022-09-29T19:56:43.974Z,99042.06
2022-09-29T19:59:13.793Z,99036.84
2022-09-29T20:01:41.698Z,99032.38
2022-09-29T20:04:09.121Z,99043.22
2022-09-29T20:06:38.126Z,99045.16
2022-09-29T20:09:05.912Z,99044.00
2022-09-29T20:11:34.894Z,99043.44
2022-09-29T20:14:03.924Z,99037.75
2022-09-29T20:16:33.468Z,99041.41
2022-09-29T20:19:00.981Z,99047.94
2022-09-29T20:21:28.646Z,99051.47
2022-09-29T20:23:57.964Z,99045.22
2022-09-29T20:26:26.136Z,99055.31
2022-09-29T20:28:53.976Z,99055.00
2022-09-29T20:31:23.278Z,99057.75
2022-09-29T20:33:51.696Z,99067.84
2022-09-29T20:36:19.637Z,99065.75
2022-09-29T20:38:48.140Z,99074.88
2022-09-29T20:41:17.057Z,99076.31
2022-09-29T20:43:48.853Z,99079.06
2022-09-29T20:46:16.280Z,99081.34
2022-09-29T20:48:44.623Z,99075.94
2022-09-29T20:51:15.173Z,99080.66
2022-09-29T20:53:43.965Z,99077.66
2022-09-29T20:56:16.164Z,99078.97
2022-09-29T20:58:46.257Z,99083.44
2022-09-29T21:01:16.160Z,99090.91
2022-09-29T21:03:43.589Z,99085.72
2022-09-29T21:06:12.009Z,99091.94
2022-09-29T21:08:41.479Z,99093.91
2022-09-29T21:11:09.161Z,99095.84
2022-09-29T21:13:36.609Z,99096.41
2022-09-29T21:16:05.961Z,99096.38
2022-09-29T21:18:33.722Z,99105.44
2022-09-29T21:21:04.335Z,99115.06
2022-09-29T21:23:33.005Z,99111.84
2022-09-29T21:26:02.663Z,99112.78
2022-09-29T21:28:30.185Z,99122.34
2022-09-29T21:31:02.717Z,99124.00
2022-09-29T21:33:31.715Z,99119.78
2022-09-29T21:35:59.749Z,99121.53
2022-09-29T21:38:30.552Z,99119.06
2022-09-29T21:41:05.289Z,99123.28
2022-09-29T21:43:34.091Z,99126.78
2022-09-29T21:46:02.978Z,99126.41
2022-09-29T21:48:33.661Z,99128.03
2022-09-29T21:51:06.014Z,99124.94
2022-09-29T21:53:34.899Z,99130.78
2022-09-29T21:56:05.025Z,99134.88
2022-09-29T21:58:32.911Z,99132.72
2022-09-29T22:01:00.654Z,99136.72
2022-09-29T22:03:32.584Z,99143.50
2022-09-29T22:06:00.758Z,99138.72
2022-09-29T22:08:28.281Z,99150.44
2022-09-29T22:10:56.358Z,99147.63
2022-09-29T22:13:25.066Z,99146.97
2022-09-29T22:15:53.415Z,99139.31
2022-09-29T22:18:21.090Z,99147.25
2022-09-29T22:20:49.833Z,99150.28
2022-09-29T22:23:17.205Z,99149.25
2022-09-29T22:25:45.785Z,99148.91
2022-09-29T22:28:15.641Z,99147.91
2022-09-29T22:30:43.435Z,99152.97
2022-09-29T22:33:10.769Z,99155.59
2022-09-29T22:35:38.350Z,99153.22
2022-09-29T22:38:08.302Z,99152.50
2022-09-29T22:40:36.352Z,99157.66
2022-09-29T22:43:03.907Z,99151.63
2022-09-29T22:45:32.994Z,99152.09
2022-09-29T22:48:01.741Z,99148.69
2022-09-29T22:50:32.158Z,99148.06
2022-09-29T22:53:00.641Z,99153.19
2022-09-29T22:55:32.005Z,99140.69
2022-09-29T22:57:59.333Z,99148.22
2022-09-29T23:00:26.873Z,99145.53
2022-09-29T23:02:54.416Z,99154.81
2022-09-29T23:05:21.797Z,99154.50
2022-09-29T23:07:49.133Z,99149.19
2022-09-29T23:10:17.029Z,99157.91
2022-09-29T23:12:45.667Z,99155.97
2022-09-29T23:15:13.261Z,99153.69
2022-09-29T23:17:40.597Z,99156.00
2022-09-29T23:20:08.970Z,99156.50
2022-09-29T23:22:36.390Z,99160.59
2022-09-29T23:25:05.985Z,99160.13
2022-09-29T23:27:33.926Z,99159.31
2022-09-29T23:30:02.614Z,99157.53
2022-09-29T23:32:29.961Z,99155.03
2022-09-29T23:34:57.301Z,99150.41
2022-09-29T23:37:45.027Z,99158.34
2022-09-29T23:40:11.406Z,99154.97
2022-09-29T23:42:38.741Z,99168.84
2022-09-29T23:45:08.213Z,99163.72
2022-09-29T23:47:35.953Z,99166.03
2022-09-29T23:50:03.394Z,99172.00
2022-09-29T23:52:30.791Z,99168.97
2022-09-29T23:54:58.165Z,99167.25
2022-09-29T23:57:25.561Z,99173.75
2022-09-29T23:59:52.881Z,99174.19
